createdAt,value
2023-04-28T06:21:12.181Z,1006.59
2023-04-28T06:31:12.269Z,1006.51
2023-04-28T06:41:11.996Z,1006.47
2023-04-28T06:51:12.404Z,1006.47
2023-04-28T07:01:12.247Z,1006.34
2023-04-28T07:11:12.241Z,1006.37
2023-04-28T07:21:12.164Z,1006.18
2023-04-28T07:31:12.376Z,1006.13
2023-04-28T07:41:12.345Z,1006.30
2023-04-28T07:51:12.157Z,1006.27
2023-04-28T08:01:12.226Z,1006.03
2023-04-28T08:11:12.219Z,1005.97
2023-04-28T08:21:12.214Z,1005.99
2023-04-28T08:31:12.305Z,1005.87
2023-04-28T08:41:12.489Z,1005.86
2023-04-28T08:51:12.451Z,1005.94
2023-04-28T09:01:12.248Z,1005.85
2023-04-28T09:11:12.546Z,1005.63
2023-04-28T09:21:12.452Z,1005.59
2023-04-28T09:31:12.475Z,1005.40
2023-04-28T09:41:12.497Z,1005.31
2023-04-28T09:51:13.250Z,1005.28
2023-04-28T10:01:12.567Z,1005.26
2023-04-28T10:11:12.419Z,1005.16
2023-04-28T10:21:12.489Z,1005.16
2023-04-28T10:31:12.600Z,1005.19
2023-04-28T10:41:12.458Z,1005.08
2023-04-28T10:51:12.412Z,1004.98
2023-04-28T11:01:12.460Z,1004.87
2023-04-28T11:11:12.377Z,1004.88
2023-04-28T11:21:12.435Z,1004.89
2023-04-28T11:31:12.356Z,1004.86
2023-04-28T11:41:12.534Z,1004.72
2023-04-28T11:51:12.546Z,1004.71
2023-04-28T12:01:12.550Z,1004.74
2023-04-28T12:11:12.532Z,1004.62
2023-04-28T12:21:12.401Z,1004.53
2023-04-28T12:31:12.536Z,1004.43
2023-04-28T12:41:12.756Z,1004.36
2023-04-28T12:51:12.500Z,1004.44
2023-04-28T13:01:12.751Z,1004.28
2023-04-28T13:11:21.815Z,1004.11
2023-04-28T13:21:12.639Z,1004.02
2023-04-28T13:31:12.670Z,1004.19
2023-04-28T13:41:12.677Z,1004.17
2023-04-28T13:51:12.739Z,1003.90
2023-04-28T14:01:12.756Z,1003.97
2023-04-28T14:11:12.754Z,1003.83
2023-04-28T14:21:12.822Z,1003.81
2023-04-28T14:31:12.912Z,1003.66
2023-04-28T14:41:12.856Z,1003.63
2023-04-28T14:51:12.682Z,1003.60
2023-04-28T15:01:12.715Z,1003.58
2023-04-28T15:11:12.719Z,1003.36
2023-04-28T15:21:12.836Z,1003.19
2023-04-28T15:31:12.913Z,1003.27
2023-04-28T15:41:12.947Z,1003.11
2023-04-28T15:51:12.857Z,1003.13
2023-04-28T16:01:12.859Z,1003.08
2023-04-28T16:11:13.133Z,1002.80
2023-04-28T16:21:12.897Z,1002.94
2023-04-28T16:31:12.900Z,1002.85
2023-04-28T16:41:12.863Z,1002.66
2023-04-28T16:51:13.013Z,1002.93
2023-04-28T17:01:12.949Z,1003.08
2023-04-28T17:11:12.916Z,1002.83
2023-04-28T17:21:12.961Z,1002.80
2023-04-28T17:31:12.991Z,1002.64
2023-04-28T17:41:12.968Z,1002.56
2023-04-28T17:51:13.033Z,1002.41
2023-04-28T18:01:13.025Z,1002.15
2023-04-28T18:11:12.968Z,1002.30
2023-04-28T18:21:13.094Z,1002.09
2023-04-28T18:31:13.120Z,1002.04
2023-04-28T18:41:13.100Z,1002.00
2023-04-28T18:51:13.207Z,1001.98
2023-04-28T19:01:13.397Z,1001.82
2023-04-28T19:11:13.453Z,1001.90
2023-04-28T19:21:13.682Z,1001.81
